sensor_id;sensor_type;location;lat;lon;timestamp;temperature;humidity
12520;DHT22;6325;49.540;8.364;2022-12-29T00:00:05;10.90;99.90
12520;DHT22;6325;49.540;8.364;2022-12-29T00:02:32;11.30;99.90
12520;DHT22;6325;49.540;8.364;2022-12-29T00:04:59;10.80;99.90
12520;DHT22;6325;49.540;8.364;2022-12-29T00:07:29;10.90;99.90
12520;DHT22;6325;49.540;8.364;2022-12-29T00:09:56;11.40;99.90
12520;DHT22;6325;49.540;8.364;2022-12-29T00:12:23;12.10;99.90
12520;DHT22;6325;49.540;8.364;2022-12-29T00:14:50;11.70;99.90
12520;DHT22;6325;49.540;8.364;2022-12-29T00:17:34;11.90;99.90
12520;DHT22;6325;49.540;8.364;2022-12-29T00:20:01;12.00;99.90
12520;DHT22;6325;49.540;8.364;2022-12-29T00:22:47;12.50;99.90
12520;DHT22;6325;49.540;8.364;2022-12-29T00:25:31;12.20;99.90
12520;DHT22;6325;49.540;8.364;2022-12-29T00:28:15;12.60;99.90
12520;DHT22;6325;49.540;8.364;2022-12-29T00:31:00;12.80;99.90
12520;DHT22;6325;49.540;8.364;2022-12-29T00:33:45;12.40;99.90
12520;DHT22;6325;49.540;8.364;2022-12-29T00:36:32;12.40;99.90
12520;DHT22;6325;49.540;8.364;2022-12-29T00:39:04;12.10;99.90
12520;DHT22;6325;49.540;8.364;2022-12-29T00:41:53;12.00;99.90
12520;DHT22;6325;49.540;8.364;2022-12-29T00:44:37;12.60;99.90
12520;DHT22;6325;49.540;8.364;2022-12-29T00:47:05;13.20;99.90
12520;DHT22;6325;49.540;8.364;2022-12-29T00:49:32;12.40;99.90
12520;DHT22;6325;49.540;8.364;2022-12-29T00:52:01;12.30;99.90
12520;DHT22;6325;49.540;8.364;2022-12-29T00:54:31;12.70;99.90
12520;DHT22;6325;49.540;8.364;2022-12-29T00:57:00;12.00;99.90
12520;DHT22;6325;49.540;8.364;2022-12-29T00:59:27;12.50;99.90
12520;DHT22;6325;49.540;8.364;2022-12-29T01:01:55;12.50;99.90
12520;DHT22;6325;49.540;8.364;2022-12-29T01:04:24;12.20;99.90
12520;DHT22;6325;49.540;8.364;2022-12-29T01:06:52;12.50;99.90
12520;DHT22;6325;49.540;8.364;2022-12-29T01:09:19;12.30;99.90
12520;DHT22;6325;49.540;8.364;2022-12-29T01:12:06;12.50;99.90
12520;DHT22;6325;49.540;8.364;2022-12-29T01:14:34;12.50;99.90
12520;DHT22;6325;49.540;8.364;2022-12-29T01:17:01;12.00;99.90
12520;DHT22;6325;49.540;8.364;2022-12-29T01:19:28;12.50;99.90
12520;DHT22;6325;49.540;8.364;2022-12-29T01:21:56;12.20;99.90
12520;DHT22;6325;49.540;8.364;2022-12-29T01:24:23;12.60;99.90
12520;DHT22;6325;49.540;8.364;2022-12-29T01:26:51;12.10;99.90
12520;DHT22;6325;49.540;8.364;2022-12-29T01:29:21;12.40;99.90
12520;DHT22;6325;49.540;8.364;2022-12-29T01:31:48;12.30;99.90
12520;DHT22;6325;49.540;8.364;2022-12-29T01:34:15;12.20;99.90
12520;DHT22;6325;49.540;8.364;2022-12-29T01:36:42;12.40;99.90
12520;DHT22;6325;49.540;8.364;2022-12-29T01:39:09;12.90;99.90
12520;DHT22;6325;49.540;8.364;2022-12-29T01:41:36;12.30;99.90
12520;DHT22;6325;49.540;8.364;2022-12-29T01:46:48;12.00;99.90
12520;DHT22;6325;49.540;8.364;2022-12-29T01:49:19;12.60;99.90
12520;DHT22;6325;49.540;8.364;2022-12-29T01:51:50;12.70;99.90
12520;DHT22;6325;49.540;8.364;2022-12-29T01:54:19;12.30;99.90
12520;DHT22;6325;49.540;8.364;2022-12-29T01:56:50;12.60;99.90
12520;DHT22;6325;49.540;8.364;2022-12-29T01:59:20;12.40;99.90
12520;DHT22;6325;49.540;8.364;2022-12-29T02:01:51;12.90;99.90
12520;DHT22;6325;49.540;8.364;2022-12-29T02:04:18;12.30;99.90
12520;DHT22;6325;49.540;8.364;2022-12-29T02:06:47;12.20;99.90
12520;DHT22;6325;49.540;8.364;2022-12-29T02:09:16;12.30;99.90
12520;DHT22;6325;49.540;8.364;2022-12-29T02:11:45;12.20;99.90
12520;DHT22;6325;49.540;8.364;2022-12-29T02:14:13;12.40;99.90
12520;DHT22;6325;49.540;8.364;2022-12-29T02:16:56;11.80;99.90
12520;DHT22;6325;49.540;8.364;2022-12-29T02:20:16;11.70;99.90
12520;DHT22;6325;49.540;8.364;2022-12-29T02:22:56;12.20;99.90
12520;DHT22;6325;49.540;8.364;2022-12-29T02:25:57;12.40;99.90
12520;DHT22;6325;49.540;8.364;2022-12-29T02:28:47;12.30;99.90
12520;DHT22;6325;49.540;8.364;2022-12-29T02:31:28;12.60;99.90
12520;DHT22;6325;49.540;8.364;2022-12-29T02:34:10;12.40;99.90
12520;DHT22;6325;49.540;8.364;2022-12-29T02:36:49;11.90;99.90
12520;DHT22;6325;49.540;8.364;2022-12-29T02:39:26;12.40;99.90
12520;DHT22;6325;49.540;8.364;2022-12-29T02:42:02;12.20;99.90
12520;DHT22;6325;49.540;8.364;2022-12-29T02:44:35;12.40;99.90
12520;DHT22;6325;49.540;8.364;2022-12-29T02:47:11;12.40;99.90
12520;DHT22;6325;49.540;8.364;2022-12-29T02:49:48;12.80;99.90
12520;DHT22;6325;49.540;8.364;2022-12-29T02:52:19;12.30;99.90
12520;DHT22;6325;49.540;8.364;2022-12-29T02:54:48;12.70;99.90
12520;DHT22;6325;49.540;8.364;2022-12-29T02:57:27;12.10;99.90
12520;DHT22;6325;49.540;8.364;2022-12-29T02:59:58;12.30;99.90
12520;DHT22;6325;49.540;8.364;2022-12-29T03:02:38;11.70;99.90
12520;DHT22;6325;49.540;8.364;2022-12-29T03:05:35;12.10;99.90
12520;DHT22;6325;49.540;8.364;2022-12-29T03:08:17;12.40;99.90
12520;DHT22;6325;49.540;8.364;2022-12-29T03:10:49;12.00;99.90
12520;DHT22;6325;49.540;8.364;2022-12-29T03:13:26;12.40;99.90
12520;DHT22;6325;49.540;8.364;2022-12-29T03:16:18;12.80;99.90
12520;DHT22;6325;49.540;8.364;2022-12-29T03:18:55;12.50;99.90
12520;DHT22;6325;49.540;8.364;2022-12-29T03:21:30;12.80;99.90
12520;DHT22;6325;49.540;8.364;2022-12-29T03:24:13;12.10;99.90
12520;DHT22;6325;49.540;8.364;2022-12-29T03:26:41;12.50;99.90
12520;DHT22;6325;49.540;8.364;2022-12-29T03:29:11;11.90;99.90
12520;DHT22;6325;49.540;8.364;2022-12-29T03:31:39;12.60;99.90
12520;DHT22;6325;49.540;8.364;2022-12-29T03:34:10;12.60;99.90
12520;DHT22;6325;49.540;8.364;2022-12-29T03:36:44;12.10;99.90
12520;DHT22;6325;49.540;8.364;2022-12-29T03:39:13;12.30;99.90
12520;DHT22;6325;49.540;8.364;2022-12-29T03:41:42;12.40;99.90
12520;DHT22;6325;49.540;8.364;2022-12-29T03:44:11;12.50;99.90
12520;DHT22;6325;49.540;8.364;2022-12-29T03:46:38;12.60;99.90
12520;DHT22;6325;49.540;8.364;2022-12-29T03:49:05;12.50;99.90
12520;DHT22;6325;49.540;8.364;2022-12-29T03:51:33;12.60;99.90
12520;DHT22;6325;49.540;8.364;2022-12-29T03:54:00;12.60;99.90
12520;DHT22;6325;49.540;8.364;2022-12-29T03:56:28;13.40;99.90
12520;DHT22;6325;49.540;8.364;2022-12-29T03:58:56;12.60;99.90
12520;DHT22;6325;49.540;8.364;2022-12-29T04:01:22;12.30;99.90
12520;DHT22;6325;49.540;8.364;2022-12-29T04:03:49;12.50;99.90
12520;DHT22;6325;49.540;8.364;2022-12-29T04:06:16;12.50;99.90
12520;DHT22;6325;49.540;8.364;2022-12-29T04:08:45;12.60;99.90
12520;DHT22;6325;49.540;8.364;2022-12-29T04:11:12;12.50;99.90
12520;DHT22;6325;49.540;8.364;2022-12-29T04:13:39;12.50;99.90
12520;DHT22;6325;49.540;8.364;2022-12-29T04:16:06;13.10;99.90
12520;DHT22;6325;49.540;8.364;2022-12-29T04:18:34;12.40;99.90
12520;DHT22;6325;49.540;8.364;2022-12-29T04:21:01;12.70;99.90
12520;DHT22;6325;49.540;8.364;2022-12-29T04:23:31;12.80;99.90
12520;DHT22;6325;49.540;8.364;2022-12-29T04:26:00;12.10;99.90
12520;DHT22;6325;49.540;8.364;2022-12-29T04:28:28;12.10;99.90
12520;DHT22;6325;49.540;8.364;2022-12-29T04:30:55;12.60;99.90
12520;DHT22;6325;49.540;8.364;2022-12-29T04:33:22;12.10;99.90
12520;DHT22;6325;49.540;8.364;2022-12-29T04:35:49;12.60;99.90
12520;DHT22;6325;49.540;8.364;2022-12-29T04:38:18;12.80;99.90
12520;DHT22;6325;49.540;8.364;2022-12-29T04:40:46;13.30;99.90
12520;DHT22;6325;49.540;8.364;2022-12-29T04:43:15;12.90;99.90
12520;DHT22;6325;49.540;8.364;2022-12-29T04:45:44;13.10;99.90
12520;DHT22;6325;49.540;8.364;2022-12-29T04:48:11;12.70;99.90
12520;DHT22;6325;49.540;8.364;2022-12-29T04:50:39;13.00;99.90
12520;DHT22;6325;49.540;8.364;2022-12-29T04:53:06;13.10;99.90
12520;DHT22;6325;49.540;8.364;2022-12-29T04:55:33;13.20;99.90
12520;DHT22;6325;49.540;8.364;2022-12-29T04:58:00;12.80;99.90
12520;DHT22;6325;49.540;8.364;2022-12-29T05:00:28;12.90;99.90
12520;DHT22;6325;49.540;8.364;2022-12-29T05:02:55;12.90;99.90
12520;DHT22;6325;49.540;8.364;2022-12-29T05:05:22;12.80;99.90
12520;DHT22;6325;49.540;8.364;2022-12-29T05:07:49;12.90;99.90
12520;DHT22;6325;49.540;8.364;2022-12-29T05:10:17;12.60;99.90
12520;DHT22;6325;49.540;8.364;2022-12-29T05:12:44;12.90;99.90
12520;DHT22;6325;49.540;8.364;2022-12-29T05:15:11;13.20;99.90
12520;DHT22;6325;49.540;8.364;2022-12-29T05:17:39;12.50;99.90
12520;DHT22;6325;49.540;8.364;2022-12-29T05:20:07;13.00;99.90
12520;DHT22;6325;49.540;8.364;2022-12-29T05:22:35;13.00;99.90
12520;DHT22;6325;49.540;8.364;2022-12-29T05:25:03;12.90;99.90
12520;DHT22;6325;49.540;8.364;2022-12-29T05:27:30;13.30;99.90
12520;DHT22;6325;49.540;8.364;2022-12-29T05:29:57;13.00;99.90
12520;DHT22;6325;49.540;8.364;2022-12-29T05:32:24;13.00;99.90
12520;DHT22;6325;49.540;8.364;2022-12-29T05:34:52;12.50;99.90
12520;DHT22;6325;49.540;8.364;2022-12-29T05:37:19;12.40;99.90
12520;DHT22;6325;49.540;8.364;2022-12-29T05:39:46;13.50;99.90
12520;DHT22;6325;49.540;8.364;2022-12-29T05:42:13;13.20;99.90
12520;DHT22;6325;49.540;8.364;2022-12-29T05:44:40;13.00;99.90
12520;DHT22;6325;49.540;8.364;2022-12-29T05:47:07;13.00;99.90
12520;DHT22;6325;49.540;8.364;2022-12-29T05:49:34;13.70;99.90
12520;DHT22;6325;49.540;8.364;2022-12-29T05:52:02;13.00;99.90
12520;DHT22;6325;49.540;8.364;2022-12-29T05:54:30;13.10;99.90
12520;DHT22;6325;49.540;8.364;2022-12-29T05:56:57;13.10;99.90
12520;DHT22;6325;49.540;8.364;2022-12-29T05:59:24;13.40;99.90
12520;DHT22;6325;49.540;8.364;2022-12-29T06:01:51;13.30;99.90
12520;DHT22;6325;49.540;8.364;2022-12-29T06:04:18;12.80;99.90
12520;DHT22;6325;49.540;8.364;2022-12-29T06:06:46;12.60;99.90
12520;DHT22;6325;49.540;8.364;2022-12-29T06:09:15;13.20;99.90
12520;DHT22;6325;49.540;8.364;2022-12-29T06:11:43;13.10;99.90
12520;DHT22;6325;49.540;8.364;2022-12-29T06:14:10;13.20;99.90
12520;DHT22;6325;49.540;8.364;2022-12-29T06:16:37;13.00;99.90
12520;DHT22;6325;49.540;8.364;2022-12-29T06:19:04;13.50;99.90
12520;DHT22;6325;49.540;8.364;2022-12-29T06:21:31;13.10;99.90
12520;DHT22;6325;49.540;8.364;2022-12-29T06:23:58;13.40;99.90
12520;DHT22;6325;49.540;8.364;2022-12-29T06:26:26;13.30;99.90
12520;DHT22;6325;49.540;8.364;2022-12-29T06:28:53;13.50;99.90
12520;DHT22;6325;49.540;8.364;2022-12-29T06:31:20;12.90;99.90
12520;DHT22;6325;49.540;8.364;2022-12-29T06:33:47;13.10;99.90
12520;DHT22;6325;49.540;8.364;2022-12-29T06:36:14;13.20;99.90
12520;DHT22;6325;49.540;8.364;2022-12-29T06:38:41;13.10;99.90
12520;DHT22;6325;49.540;8.364;2022-12-29T06:41:08;13.00;99.90
12520;DHT22;6325;49.540;8.364;2022-12-29T06:43:36;13.60;99.90
12520;DHT22;6325;49.540;8.364;2022-12-29T06:46:04;13.30;99.90
12520;DHT22;6325;49.540;8.364;2022-12-29T06:48:31;13.10;99.90
12520;DHT22;6325;49.540;8.364;2022-12-29T06:50:58;13.30;99.90
12520;DHT22;6325;49.540;8.364;2022-12-29T06:53:25;13.30;99.90
12520;DHT22;6325;49.540;8.364;2022-12-29T06:55:52;13.30;99.90
12520;DHT22;6325;49.540;8.364;2022-12-29T06:58:19;13.40;99.90
12520;DHT22;6325;49.540;8.364;2022-12-29T07:00:47;13.80;99.90
12520;DHT22;6325;49.540;8.364;2022-12-29T07:03:14;13.50;99.90
12520;DHT22;6325;49.540;8.364;2022-12-29T07:05:41;13.00;99.90
12520;DHT22;6325;49.540;8.364;2022-12-29T07:08:08;13.10;99.90
12520;DHT22;6325;49.540;8.364;2022-12-29T07:10:35;12.90;99.90
12520;DHT22;6325;49.540;8.364;2022-12-29T07:13:03;13.60;99.90
12520;DHT22;6325;49.540;8.364;2022-12-29T07:15:30;12.80;99.90
12520;DHT22;6325;49.540;8.364;2022-12-29T07:17:58;13.00;99.90
12520;DHT22;6325;49.540;8.364;2022-12-29T07:20:25;12.70;99.90
12520;DHT22;6325;49.540;8.364;2022-12-29T07:22:52;13.50;99.90
12520;DHT22;6325;49.540;8.364;2022-12-29T07:25:19;12.70;99.90
12520;DHT22;6325;49.540;8.364;2022-12-29T07:27:46;13.40;99.90
12520;DHT22;6325;49.540;8.364;2022-12-29T07:30:14;12.30;99.90
12520;DHT22;6325;49.540;8.364;2022-12-29T07:32:41;12.80;99.90
12520;DHT22;6325;49.540;8.364;2022-12-29T07:35:10;12.80;99.90
12520;DHT22;6325;49.540;8.364;2022-12-29T07:37:37;13.10;99.90
12520;DHT22;6325;49.540;8.364;2022-12-29T07:40:05;12.50;99.90
12520;DHT22;6325;49.540;8.364;2022-12-29T07:42:32;12.80;99.90
12520;DHT22;6325;49.540;8.364;2022-12-29T07:44:59;12.80;99.90
12520;DHT22;6325;49.540;8.364;2022-12-29T07:47:26;13.10;99.90
12520;DHT22;6325;49.540;8.364;2022-12-29T07:49:53;12.80;99.90
12520;DHT22;6325;49.540;8.364;2022-12-29T07:52:21;12.60;99.90
12520;DHT22;6325;49.540;8.364;2022-12-29T07:54:48;12.70;99.90
12520;DHT22;6325;49.540;8.364;2022-12-29T07:57:16;12.70;99.90
12520;DHT22;6325;49.540;8.364;2022-12-29T07:59:43;12.80;99.90
12520;DHT22;6325;49.540;8.364;2022-12-29T08:02:10;13.20;99.90
12520;DHT22;6325;49.540;8.364;2022-12-29T08:04:37;12.40;99.90
12520;DHT22;6325;49.540;8.364;2022-12-29T08:07:04;13.20;99.90
12520;DHT22;6325;49.540;8.364;2022-12-29T08:09:32;12.80;99.90
12520;DHT22;6325;49.540;8.364;2022-12-29T08:11:59;12.30;99.90
12520;DHT22;6325;49.540;8.364;2022-12-29T08:14:26;12.70;99.90
12520;DHT22;6325;49.540;8.364;2022-12-29T08:16:53;13.00;99.90
12520;DHT22;6325;49.540;8.364;2022-12-29T08:19:20;13.30;99.90
12520;DHT22;6325;49.540;8.364;2022-12-29T08:21:47;13.20;99.90
12520;DHT22;6325;49.540;8.364;2022-12-29T08:24:14;13.50;99.90
12520;DHT22;6325;49.540;8.364;2022-12-29T08:26:43;13.00;99.90
12520;DHT22;6325;49.540;8.364;2022-12-29T08:29:10;13.30;99.90
12520;DHT22;6325;49.540;8.364;2022-12-29T08:31:37;13.00;99.90
12520;DHT22;6325;49.540;8.364;2022-12-29T08:34:04;13.10;99.90
12520;DHT22;6325;49.540;8.364;2022-12-29T08:36:31;13.20;99.90
12520;DHT22;6325;49.540;8.364;2022-12-29T08:38:58;13.20;99.90
12520;DHT22;6325;49.540;8.364;2022-12-29T10:43:11;13.60;99.90
12520;DHT22;6325;49.540;8.364;2022-12-29T10:45:40;13.40;99.90
12520;DHT22;6325;49.540;8.364;2022-12-29T10:48:14;13.80;99.90
12520;DHT22;6325;49.540;8.364;2022-12-29T10:50:43;13.50;99.90
12520;DHT22;6325;49.540;8.364;2022-12-29T10:53:17;13.50;99.90
12520;DHT22;6325;49.540;8.364;2022-12-29T10:55:45;14.70;99.90
12520;DHT22;6325;49.540;8.364;2022-12-29T10:58:14;13.70;99.90
12520;DHT22;6325;49.540;8.364;2022-12-29T11:00:43;13.60;99.90
12520;DHT22;6325;49.540;8.364;2022-12-29T11:06:11;14.20;99.90
12520;DHT22;6325;49.540;8.364;2022-12-29T11:08:44;13.90;99.90
12520;DHT22;6325;49.540;8.364;2022-12-29T11:11:23;13.40;99.90
12520;DHT22;6325;49.540;8.364;2022-12-29T11:13:58;13.50;99.90
12520;DHT22;6325;49.540;8.364;2022-12-29T11:16:29;13.90;99.90
12520;DHT22;6325;49.540;8.364;2022-12-29T11:18:57;13.70;99.90
12520;DHT22;6325;49.540;8.364;2022-12-29T11:21:30;13.70;99.90
12520;DHT22;6325;49.540;8.364;2022-12-29T11:23:59;13.50;99.90
12520;DHT22;6325;49.540;8.364;2022-12-29T11:26:26;13.90;99.90
12520;DHT22;6325;49.540;8.364;2022-12-29T11:29:17;12.80;99.90
12520;DHT22;6325;49.540;8.364;2022-12-29T11:31:49;13.20;99.90
12520;DHT22;6325;49.540;8.364;2022-12-29T11:34:20;13.00;99.90
12520;DHT22;6325;49.540;8.364;2022-12-29T11:36:50;12.80;99.90
12520;DHT22;6325;49.540;8.364;2022-12-29T11:39:29;12.60;99.90
12520;DHT22;6325;49.540;8.364;2022-12-29T11:41:57;13.10;99.90
12520;DHT22;6325;49.540;8.364;2022-12-29T11:44:26;12.50;99.90
12520;DHT22;6325;49.540;8.364;2022-12-29T11:46:54;12.60;99.90
12520;DHT22;6325;49.540;8.364;2022-12-29T11:49:23;13.00;99.90
12520;DHT22;6325;49.540;8.364;2022-12-29T11:51:52;12.10;99.90
12520;DHT22;6325;49.540;8.364;2022-12-29T11:54:23;12.30;99.90
12520;DHT22;6325;49.540;8.364;2022-12-29T11:56:51;13.00;99.90
12520;DHT22;6325;49.540;8.364;2022-12-29T11:59:39;12.70;99.90
12520;DHT22;6325;49.540;8.364;2022-12-29T12:05:25;13.10;99.90
12520;DHT22;6325;49.540;8.364;2022-12-29T12:07:57;12.90;99.90
12520;DHT22;6325;49.540;8.364;2022-12-29T12:10:29;13.10;99.90
12520;DHT22;6325;49.540;8.364;2022-12-29T12:13:03;13.10;99.90
12520;DHT22;6325;49.540;8.364;2022-12-29T12:15:39;12.70;99.90
12520;DHT22;6325;49.540;8.364;2022-12-29T12:18:11;13.20;99.90
12520;DHT22;6325;49.540;8.364;2022-12-29T12:20:48;13.40;99.90
12520;DHT22;6325;49.540;8.364;2022-12-29T12:23:26;14.10;99.90
12520;DHT22;6325;49.540;8.364;2022-12-29T12:25:59;13.60;99.90
12520;DHT22;6325;49.540;8.364;2022-12-29T12:28:34;13.70;99.90
12520;DHT22;6325;49.540;8.364;2022-12-29T12:31:06;13.80;99.90
12520;DHT22;6325;49.540;8.364;2022-12-29T12:33:42;14.40;99.90
12520;DHT22;6325;49.540;8.364;2022-12-29T12:39:02;14.20;99.90
12520;DHT22;6325;49.540;8.364;2022-12-29T12:41:41;13.80;99.90
12520;DHT22;6325;49.540;8.364;2022-12-29T12:44:18;13.40;99.90
12520;DHT22;6325;49.540;8.364;2022-12-29T12:47:07;13.20;99.90
12520;DHT22;6325;49.540;8.364;2022-12-29T12:50:02;14.30;99.90
12520;DHT22;6325;49.540;8.364;2022-12-29T12:52:40;14.20;99.90
12520;DHT22;6325;49.540;8.364;2022-12-29T12:55:25;14.10;99.90
12520;DHT22;6325;49.540;8.364;2022-12-29T12:58:03;14.20;99.90
12520;DHT22;6325;49.540;8.364;2022-12-29T13:00:39;14.20;99.90
12520;DHT22;6325;49.540;8.364;2022-12-29T13:03:15;13.20;99.90
12520;DHT22;6325;49.540;8.364;2022-12-29T13:06:07;13.50;99.90
12520;DHT22;6325;49.540;8.364;2022-12-29T13:08:49;13.80;99.90
12520;DHT22;6325;49.540;8.364;2022-12-29T13:11:24;13.20;99.90
12520;DHT22;6325;49.540;8.364;2022-12-29T13:14:07;13.60;99.90
12520;DHT22;6325;49.540;8.364;2022-12-29T13:16:41;13.60;99.90
12520;DHT22;6325;49.540;8.364;2022-12-29T13:19:23;13.80;99.90
12520;DHT22;6325;49.540;8.364;2022-12-29T13:22:00;13.40;99.90
12520;DHT22;6325;49.540;8.364;2022-12-29T13:24:35;12.80;99.90
12520;DHT22;6325;49.540;8.364;2022-12-29T13:27:14;13.20;99.90
12520;DHT22;6325;49.540;8.364;2022-12-29T13:29:50;13.20;99.90
12520;DHT22;6325;49.540;8.364;2022-12-29T13:32:26;13.10;99.90
12520;DHT22;6325;49.540;8.364;2022-12-29T13:35:10;13.10;99.90
12520;DHT22;6325;49.540;8.364;2022-12-29T13:37:52;13.30;99.90
12520;DHT22;6325;49.540;8.364;2022-12-29T13:40:23;13.20;99.90
12520;DHT22;6325;49.540;8.364;2022-12-29T13:42:52;13.10;99.90
12520;DHT22;6325;49.540;8.364;2022-12-29T13:45:21;13.20;99.90
12520;DHT22;6325;49.540;8.364;2022-12-29T13:47:54;13.60;99.90
12520;DHT22;6325;49.540;8.364;2022-12-29T13:50:26;12.60;99.90
12520;DHT22;6325;49.540;8.364;2022-12-29T13:53:02;12.70;99.90
12520;DHT22;6325;49.540;8.364;2022-12-29T13:55:37;12.90;99.90
12520;DHT22;6325;49.540;8.364;2022-12-29T13:58:12;13.00;99.90
12520;DHT22;6325;49.540;8.364;2022-12-29T14:00:47;13.20;99.90
12520;DHT22;6325;49.540;8.364;2022-12-29T14:03:28;12.90;99.90
12520;DHT22;6325;49.540;8.364;2022-12-29T14:06:16;12.80;99.90
12520;DHT22;6325;49.540;8.364;2022-12-29T14:08:46;13.10;99.90
12520;DHT22;6325;49.540;8.364;2022-12-29T14:11:15;12.70;99.90
12520;DHT22;6325;49.540;8.364;2022-12-29T14:13:44;13.20;99.90
12520;DHT22;6325;49.540;8.364;2022-12-29T14:16:28;12.70;99.90
12520;DHT22;6325;49.540;8.364;2022-12-29T14:18:57;12.60;99.90
12520;DHT22;6325;49.540;8.364;2022-12-29T14:21:32;12.90;99.90
12520;DHT22;6325;49.540;8.364;2022-12-29T14:33:28;12.40;99.90
12520;DHT22;6325;49.540;8.364;2022-12-29T14:35:57;12.50;99.90
12520;DHT22;6325;49.540;8.364;2022-12-29T14:38:46;12.30;99.90
12520;DHT22;6325;49.540;8.364;2022-12-29T14:41:24;12.70;99.90
12520;DHT22;6325;49.540;8.364;2022-12-29T14:44:02;12.50;99.90
12520;DHT22;6325;49.540;8.364;2022-12-29T14:46:54;12.20;99.90
12520;DHT22;6325;49.540;8.364;2022-12-29T14:49:24;12.10;99.90
12520;DHT22;6325;49.540;8.364;2022-12-29T14:51:54;12.00;99.90
12520;DHT22;6325;49.540;8.364;2022-12-29T14:54:47;12.00;99.90
12520;DHT22;6325;49.540;8.364;2022-12-29T14:57:21;12.10;99.90
12520;DHT22;6325;49.540;8.364;2022-12-29T14:59:53;11.80;99.90
12520;DHT22;6325;49.540;8.364;2022-12-29T15:02:24;12.10;99.90
12520;DHT22;6325;49.540;8.364;2022-12-29T15:04:52;11.80;99.90
12520;DHT22;6325;49.540;8.364;2022-12-29T15:07:20;11.80;99.90
12520;DHT22;6325;49.540;8.364;2022-12-29T15:09:54;11.90;99.90
12520;DHT22;6325;49.540;8.364;2022-12-29T15:12:30;11.80;99.90
12520;DHT22;6325;49.540;8.364;2022-12-29T15:15:00;11.80;99.90
12520;DHT22;6325;49.540;8.364;2022-12-29T15:17:29;11.90;99.90
12520;DHT22;6325;49.540;8.364;2022-12-29T15:19:57;11.90;99.90
12520;DHT22;6325;49.540;8.364;2022-12-29T15:22:25;11.80;99.90
12520;DHT22;6325;49.540;8.364;2022-12-29T15:24:54;11.70;99.90
12520;DHT22;6325;49.540;8.364;2022-12-29T15:27:22;11.70;99.90
12520;DHT22;6325;49.540;8.364;2022-12-29T15:29:56;11.50;99.90
12520;DHT22;6325;49.540;8.364;2022-12-29T15:32:25;12.10;99.90
12520;DHT22;6325;49.540;8.364;2022-12-29T15:34:54;11.90;99.90
12520;DHT22;6325;49.540;8.364;2022-12-29T15:37:24;11.90;99.90
12520;DHT22;6325;49.540;8.364;2022-12-29T15:39:53;11.60;99.90
12520;DHT22;6325;49.540;8.364;2022-12-29T15:42:33;11.30;99.90
12520;DHT22;6325;49.540;8.364;2022-12-29T15:45:06;11.30;99.90
12520;DHT22;6325;49.540;8.364;2022-12-29T15:47:34;11.20;99.90
12520;DHT22;6325;49.540;8.364;2022-12-29T15:50:03;11.60;99.90
12520;DHT22;6325;49.540;8.364;2022-12-29T15:52:32;11.80;99.90
12520;DHT22;6325;49.540;8.364;2022-12-29T15:55:01;11.10;99.90
12520;DHT22;6325;49.540;8.364;2022-12-29T15:57:30;11.40;99.90
12520;DHT22;6325;49.540;8.364;2022-12-29T15:59:58;11.10;99.90
12520;DHT22;6325;49.540;8.364;2022-12-29T16:02:26;11.40;99.90
12520;DHT22;6325;49.540;8.364;2022-12-29T16:04:54;11.40;99.90
12520;DHT22;6325;49.540;8.364;2022-12-29T16:07:27;11.70;99.90
12520;DHT22;6325;49.540;8.364;2022-12-29T16:09:55;11.40;99.90
12520;DHT22;6325;49.540;8.364;2022-12-29T16:12:26;11.40;99.90
12520;DHT22;6325;49.540;8.364;2022-12-29T16:14:57;11.40;99.90
12520;DHT22;6325;49.540;8.364;2022-12-29T16:17:27;11.60;99.90
12520;DHT22;6325;49.540;8.364;2022-12-29T16:19:57;11.50;99.90
12520;DHT22;6325;49.540;8.364;2022-12-29T16:22:28;11.40;99.90
12520;DHT22;6325;49.540;8.364;2022-12-29T16:24:58;11.40;99.90
12520;DHT22;6325;49.540;8.364;2022-12-29T16:27:34;11.60;99.90
12520;DHT22;6325;49.540;8.364;2022-12-29T16:30:04;11.50;99.90
12520;DHT22;6325;49.540;8.364;2022-12-29T16:32:32;11.20;99.90
12520;DHT22;6325;49.540;8.364;2022-12-29T16:35:12;11.70;99.90
12520;DHT22;6325;49.540;8.364;2022-12-29T16:37:40;12.10;99.90
12520;DHT22;6325;49.540;8.364;2022-12-29T16:40:27;11.60;99.90
12520;DHT22;6325;49.540;8.364;2022-12-29T16:42:58;11.50;99.90
12520;DHT22;6325;49.540;8.364;2022-12-29T16:46:18;11.50;99.90
12520;DHT22;6325;49.540;8.364;2022-12-29T16:48:49;11.40;99.90
12520;DHT22;6325;49.540;8.364;2022-12-29T16:51:30;11.60;99.90
12520;DHT22;6325;49.540;8.364;2022-12-29T16:53:58;12.00;99.90
12520;DHT22;6325;49.540;8.364;2022-12-29T16:56:27;12.00;99.90
12520;DHT22;6325;49.540;8.364;2022-12-29T16:59:01;11.50;99.90
12520;DHT22;6325;49.540;8.364;2022-12-29T17:01:28;11.80;99.90
12520;DHT22;6325;49.540;8.364;2022-12-29T17:03:59;11.40;99.90
12520;DHT22;6325;49.540;8.364;2022-12-29T17:06:27;11.40;99.90
12520;DHT22;6325;49.540;8.364;2022-12-29T17:08:53;11.50;99.90
12520;DHT22;6325;49.540;8.364;2022-12-29T17:11:23;11.80;99.90
12520;DHT22;6325;49.540;8.364;2022-12-29T17:17:00;11.80;99.90
12520;DHT22;6325;49.540;8.364;2022-12-29T17:19:31;11.60;99.90
12520;DHT22;6325;49.540;8.364;2022-12-29T17:21:58;11.50;99.90
12520;DHT22;6325;49.540;8.364;2022-12-29T17:24:26;11.50;99.90
12520;DHT22;6325;49.540;8.364;2022-12-29T17:26:55;11.30;99.90
12520;DHT22;6325;49.540;8.364;2022-12-29T17:29:30;11.30;99.90
12520;DHT22;6325;49.540;8.364;2022-12-29T17:31:58;11.50;99.90
12520;DHT22;6325;49.540;8.364;2022-12-29T17:34:25;11.40;99.90
12520;DHT22;6325;49.540;8.364;2022-12-29T17:36:52;11.20;99.90
12520;DHT22;6325;49.540;8.364;2022-12-29T17:39:19;11.40;99.90
12520;DHT22;6325;49.540;8.364;2022-12-29T17:41:46;11.40;99.90
12520;DHT22;6325;49.540;8.364;2022-12-29T17:44:15;11.40;99.90
12520;DHT22;6325;49.540;8.364;2022-12-29T17:46:46;11.30;99.90
12520;DHT22;6325;49.540;8.364;2022-12-29T17:49:15;11.50;99.90
12520;DHT22;6325;49.540;8.364;2022-12-29T17:51:43;11.30;99.90
12520;DHT22;6325;49.540;8.364;2022-12-29T17:54:18;11.10;99.90
12520;DHT22;6325;49.540;8.364;2022-12-29T17:56:47;11.20;99.90
12520;DHT22;6325;49.540;8.364;2022-12-29T17:59:15;11.90;99.90
12520;DHT22;6325;49.540;8.364;2022-12-29T18:01:43;11.40;99.90
12520;DHT22;6325;49.540;8.364;2022-12-29T18:04:13;11.50;99.90
12520;DHT22;6325;49.540;8.364;2022-12-29T18:06:41;11.20;99.90
12520;DHT22;6325;49.540;8.364;2022-12-29T18:09:08;11.50;99.90
12520;DHT22;6325;49.540;8.364;2022-12-29T18:11:37;11.30;99.90
12520;DHT22;6325;49.540;8.364;2022-12-29T18:14:04;11.80;99.90
12520;DHT22;6325;49.540;8.364;2022-12-29T18:16:31;11.20;99.90
12520;DHT22;6325;49.540;8.364;2022-12-29T18:18:58;11.30;99.90
12520;DHT22;6325;49.540;8.364;2022-12-29T18:21:26;11.30;99.90
12520;DHT22;6325;49.540;8.364;2022-12-29T18:23:53;11.10;99.90
12520;DHT22;6325;49.540;8.364;2022-12-29T18:26:22;11.20;99.90
12520;DHT22;6325;49.540;8.364;2022-12-29T18:28:49;10.70;99.90
12520;DHT22;6325;49.540;8.364;2022-12-29T18:31:20;11.40;99.90
12520;DHT22;6325;49.540;8.364;2022-12-29T18:33:48;11.50;99.90
12520;DHT22;6325;49.540;8.364;2022-12-29T18:36:16;10.50;99.90